Time;durP1;ratioP1;P1;durP2;ratioP2;P2;SDS_P1;SDS_P2;PMS_P1;PMS_P2;Temp;Humidity;BMP_temperature;BMP_pressure;BME280_temperature;BME280_humidity;BME280_pressure;Samples;Min_cycle;Max_cycle;Signal;HPM_P1;HPM_P2
2020/12/19 00:00:38;;;;;;;5.90;3.80;;;;;11.80;101295.00;;;;5105864;28;20233;-77
2020/12/19 00:03:05;;;;;;;5.10;3.88;;;;;11.80;101286.00;;;;5101810;28;20195;-77
2020/12/19 00:05:32;;;;;;;5.65;3.67;;;;;11.80;101288.00;;;;5089891;28;20194;-77
2020/12/19 00:07:58;;;;;;;5.07;3.70;;;;;11.80;101293.00;;;;5098815;28;20198;-77
2020/12/19 00:10:25;;;;;;;5.57;3.80;;;;;11.80;101285.00;;;;5094210;28;20994;-77
2020/12/19 00:12:52;;;;;;;6.38;4.15;;;;;11.70;101285.00;;;;5090944;28;20191;-78
2020/12/19 00:15:24;;;;;;;5.47;3.75;;;;;11.70;101297.00;;;;5095640;28;20194;-77
2020/12/19 00:17:51;;;;;;;5.13;3.53;;;;;11.70;101287.00;;;;5091215;28;20652;-77
2020/12/19 00:20:18;;;;;;;6.75;3.90;;;;;11.70;101277.00;;;;5095738;28;20200;-77
2020/12/19 00:22:45;;;;;;;6.63;4.30;;;;;11.70;101271.00;;;;5106157;28;20271;-78
2020/12/19 00:25:12;;;;;;;7.20;4.28;;;;;11.60;101267.00;;;;5106546;28;20197;-77
2020/12/19 00:27:38;;;;;;;6.88;4.13;;;;;11.70;101270.00;;;;5088739;28;20206;-77
2020/12/19 00:30:07;;;;;;;5.05;3.67;;;;;11.60;101269.00;;;;5068375;28;20649;-77
2020/12/19 00:32:34;;;;;;;5.47;3.50;;;;;11.60;101268.00;;;;5089854;28;20690;-77
2020/12/19 00:35:02;;;;;;;4.68;3.15;;;;;11.60;101258.00;;;;5087795;28;20198;-78
2020/12/19 00:37:29;;;;;;;4.95;3.40;;;;;11.60;101253.00;;;;5088068;28;20218;-77
2020/12/19 00:39:55;;;;;;;5.00;3.83;;;;;11.60;101260.00;;;;5087817;28;20198;-77
2020/12/19 00:42:22;;;;;;;5.15;3.95;;;;;11.60;101260.00;;;;5092895;28;20204;-78
2020/12/19 00:44:49;;;;;;;5.85;4.47;;;;;11.60;101254.00;;;;5098549;28;20198;-77
2020/12/19 00:47:15;;;;;;;5.80;3.90;;;;;11.60;101251.00;;;;5099726;28;20193;-77
2020/12/19 00:49:42;;;;;;;5.32;3.95;;;;;11.60;101254.00;;;;5098820;28;20205;-78
2020/12/19 00:52:10;;;;;;;6.40;4.13;;;;;11.60;101257.00;;;;5095058;28;20199;-77
2020/12/19 00:54:36;;;;;;;5.88;4.07;;;;;11.60;101251.00;;;;5091614;28;20194;-77
2020/12/19 00:57:03;;;;;;;6.00;4.07;;;;;11.50;101238.00;;;;5092788;28;20225;-77
2020/12/19 00:59:30;;;;;;;5.43;3.88;;;;;11.60;101233.00;;;;5091072;28;20222;-78
2020/12/19 01:01:57;;;;;;;6.80;4.53;;;;;11.50;101234.00;;;;5092298;28;20218;-77
2020/12/19 01:04:23;;;;;;;5.93;4.30;;;;;11.50;101230.00;;;;5092077;28;20206;-78
2020/12/19 01:06:50;;;;;;;5.75;4.30;;;;;11.50;101233.00;;;;5092084;28;20198;-78
2020/12/19 01:09:18;;;;;;;5.22;3.72;;;;;11.50;101232.00;;;;5091820;28;20255;-78
2020/12/19 01:11:44;;;;;;;6.25;4.57;;;;;11.50;101235.00;;;;5100095;28;20229;-78
2020/12/19 01:14:11;;;;;;;5.35;3.50;;;;;11.50;101229.00;;;;5091072;28;20722;-77
2020/12/19 01:16:38;;;;;;;6.35;4.18;;;;;11.50;101216.00;;;;5096556;28;20226;-77
2020/12/19 01:19:05;;;;;;;5.78;4.13;;;;;11.50;101215.00;;;;5090953;28;20205;-77
2020/12/19 01:21:34;;;;;;;8.13;4.40;;;;;11.50;101211.00;;;;5101273;28;20631;-77
2020/12/19 01:24:01;;;;;;;6.63;4.25;;;;;11.40;101207.00;;;;5111516;28;20788;-77
2020/12/19 01:26:28;;;;;;;6.68;4.72;;;;;11.40;101204.00;;;;5100173;28;20232;-77
2020/12/19 01:28:55;;;;;;;6.40;4.05;;;;;11.40;101212.00;;;;5091464;28;20228;-77
2020/12/19 01:31:23;;;;;;;6.00;4.38;;;;;11.40;101216.00;;;;5096735;28;20197;-77
2020/12/19 01:33:51;;;;;;;5.72;4.30;;;;;11.40;101216.00;;;;5111006;28;20202;-77
2020/12/19 01:36:19;;;;;;;5.82;3.95;;;;;11.40;101224.00;;;;5104513;28;20236;-77
2020/12/19 01:38:46;;;;;;;6.78;4.03;;;;;11.40;101219.00;;;;5110366;28;20205;-77
2020/12/19 01:41:14;;;;;;;6.68;4.13;;;;;11.40;101216.00;;;;5110193;28;20209;-77
2020/12/19 01:43:47;;;;;;;10.55;5.10;;;;;11.30;101206.00;;;;5109505;28;20917;-77
2020/12/19 01:46:28;;;;;;;6.10;4.43;;;;;11.30;101214.00;;;;5104941;28;20201;-77
2020/12/19 01:48:56;;;;;;;8.25;4.45;;;;;11.40;101214.00;;;;5090978;28;20255;-77
2020/12/19 01:51:24;;;;;;;6.38;4.45;;;;;11.40;101216.00;;;;5090709;28;20281;-77
2020/12/19 01:53:51;;;;;;;6.80;4.70;;;;;11.30;101222.00;;;;5089246;28;20229;-77
2020/12/19 01:56:30;;;;;;;7.82;4.80;;;;;11.30;101226.00;;;;5093052;28;20216;-77
2020/12/19 01:58:57;;;;;;;6.30;4.60;;;;;11.30;101227.00;;;;5111131;28;20256;-77
2020/12/19 02:01:28;;;;;;;7.53;4.50;;;;;11.30;101222.00;;;;5103468;28;20221;-77
2020/12/19 02:03:54;;;;;;;6.25;4.00;;;;;11.30;101225.00;;;;5110911;28;20291;-77
2020/12/19 02:06:22;;;;;;;8.02;4.57;;;;;11.30;101215.00;;;;5095164;28;20599;-77
2020/12/19 02:08:52;;;;;;;6.85;4.53;;;;;11.30;101215.00;;;;5090238;28;20203;-77
2020/12/19 02:11:19;;;;;;;6.75;4.43;;;;;11.30;101216.00;;;;5097191;28;20566;-77
2020/12/19 02:13:46;;;;;;;8.88;5.28;;;;;11.30;101210.00;;;;5093635;28;20225;-77
2020/12/19 02:16:17;;;;;;;7.07;4.97;;;;;11.30;101207.00;;;;5092114;28;20220;-77
2020/12/19 02:18:44;;;;;;;9.23;4.70;;;;;11.30;101216.00;;;;5090397;28;20244;-77
2020/12/19 02:21:11;;;;;;;8.80;4.82;;;;;11.30;101208.00;;;;5090807;28;20568;-77
2020/12/19 02:23:39;;;;;;;8.00;5.35;;;;;11.30;101213.00;;;;5089523;28;20209;-77
2020/12/19 02:26:06;;;;;;;9.35;5.50;;;;;11.30;101211.00;;;;5090385;28;20548;-78
2020/12/19 02:28:32;;;;;;;8.93;5.22;;;;;11.30;101204.00;;;;5089830;28;20211;-77
2020/12/19 02:30:59;;;;;;;9.38;5.00;;;;;11.30;101210.00;;;;5089794;28;20491;-77
2020/12/19 02:33:26;;;;;;;8.70;5.60;;;;;11.30;101204.00;;;;5070910;28;20191;-78
2020/12/19 02:35:52;;;;;;;7.07;4.55;;;;;11.30;101205.00;;;;5107444;28;20706;-77
2020/12/19 02:38:19;;;;;;;10.45;5.45;;;;;11.30;101202.00;;;;5109696;28;20201;-77
2020/12/19 02:40:47;;;;;;;9.25;5.20;;;;;11.30;101204.00;;;;5108169;28;20694;-77
2020/12/19 02:43:13;;;;;;;7.93;5.30;;;;;11.30;101199.00;;;;5100467;28;20209;-77
2020/12/19 02:45:40;;;;;;;7.85;4.50;;;;;11.30;101185.00;;;;5101186;28;21089;-77
2020/12/19 02:48:07;;;;;;;7.05;4.75;;;;;11.30;101183.00;;;;5090438;28;20293;-77
2020/12/19 02:50:33;;;;;;;8.00;5.35;;;;;11.30;101189.00;;;;5087301;28;20270;-78
2020/12/19 02:53:00;;;;;;;7.40;4.97;;;;;11.30;101187.00;;;;5108447;28;20201;-77
2020/12/19 02:55:27;;;;;;;7.57;4.90;;;;;11.30;101172.00;;;;5109634;28;20205;-77
2020/12/19 02:57:54;;;;;;;8.75;5.47;;;;;11.30;101165.00;;;;5108673;28;20201;-77
2020/12/19 03:00:21;;;;;;;8.35;5.38;;;;;11.30;101170.00;;;;5102017;28;20238;-77
2020/12/19 03:02:48;;;;;;;8.45;4.70;;;;;11.30;101166.00;;;;5092338;28;20206;-77
2020/12/19 03:05:14;;;;;;;8.35;5.38;;;;;11.30;101166.00;;;;5103654;28;20193;-77
2020/12/19 03:07:41;;;;;;;8.77;4.68;;;;;11.40;101161.00;;;;5091436;28;20201;-77
2020/12/19 03:10:08;;;;;;;7.70;4.78;;;;;11.40;101159.00;;;;5094317;28;20205;-77
2020/12/19 03:12:35;;;;;;;6.13;4.97;;;;;11.40;101164.00;;;;5103468;28;20745;-77
2020/12/19 03:15:02;;;;;;;7.97;4.68;;;;;11.40;101150.00;;;;5089623;28;20201;-77
2020/12/19 03:17:29;;;;;;;7.18;4.93;;;;;11.40;101155.00;;;;5084490;28;20226;-77
2020/12/19 03:19:56;;;;;;;7.45;4.30;;;;;11.40;101150.00;;;;5099783;28;20201;-78
2020/12/19 03:22:22;;;;;;;8.48;4.90;;;;;11.40;101145.00;;;;5109652;28;20671;-77
2020/12/19 03:24:49;;;;;;;6.95;4.43;;;;;11.40;101145.00;;;;5109109;28;20226;-77
2020/12/19 03:27:16;;;;;;;8.13;5.05;;;;;11.40;101144.00;;;;5103030;28;20197;-77
2020/12/19 03:29:43;;;;;;;7.10;5.00;;;;;11.40;101147.00;;;;5107125;28;20189;-77
2020/12/19 03:32:11;;;;;;;6.68;4.55;;;;;11.40;101137.00;;;;5107676;28;20210;-78
2020/12/19 03:34:37;;;;;;;9.23;5.47;;;;;11.40;101133.00;;;;5099958;28;20198;-77
2020/12/19 03:37:04;;;;;;;5.95;4.60;;;;;11.40;101130.00;;;;5096247;28;20228;-77
2020/12/19 03:39:31;;;;;;;7.88;4.95;;;;;11.40;101128.00;;;;5104466;28;20182;-78
2020/12/19 03:41:58;;;;;;;9.02;4.82;;;;;11.40;101127.00;;;;5095137;28;20190;-78
2020/12/19 03:44:24;;;;;;;7.22;4.50;;;;;11.40;101130.00;;;;5106731;28;20201;-77
2020/12/19 03:46:51;;;;;;;7.38;5.13;;;;;11.40;101128.00;;;;5106677;28;20193;-77
2020/12/19 03:49:19;;;;;;;9.48;6.13;;;;;11.40;101118.00;;;;5109105;28;20205;-77
2020/12/19 03:51:46;;;;;;;7.10;4.60;;;;;11.50;101107.00;;;;5101535;28;20271;-77
2020/12/19 03:54:13;;;;;;;7.00;4.60;;;;;11.50;101111.00;;;;5107095;28;20213;-77
2020/12/19 03:56:40;;;;;;;7.43;4.65;;;;;11.50;101105.00;;;;5088770;28;20214;-77
2020/12/19 03:59:06;;;;;;;7.28;4.72;;;;;11.50;101091.00;;;;5091263;28;20216;-78
2020/12/19 04:01:33;;;;;;;7.47;4.68;;;;;11.50;101095.00;;;;5092966;28;20213;-77
2020/12/19 04:04:00;;;;;;;8.30;5.43;;;;;11.50;101099.00;;;;5108764;28;20193;-77
2020/12/19 04:06:27;;;;;;;7.25;4.93;;;;;11.50;101084.00;;;;5083750;28;20848;-77
2020/12/19 04:08:54;;;;;;;8.35;4.63;;;;;11.50;101086.00;;;;5098090;28;20212;-78
2020/12/19 04:11:21;;;;;;;8.65;4.80;;;;;11.50;101091.00;;;;5094550;28;20193;-77
2020/12/19 04:13:48;;;;;;;8.52;4.93;;;;;11.50;101082.00;;;;5098262;28;20197;-77
2020/12/19 04:16:14;;;;;;;9.27;5.75;;;;;11.50;101086.00;;;;5098687;28;20209;-78
2020/12/19 04:18:41;;;;;;;6.88;4.55;;;;;11.50;101081.00;;;;5088650;28;20575;-78
2020/12/19 04:21:08;;;;;;;7.20;4.85;;;;;11.50;101076.00;;;;5095406;28;20190;-77
2020/12/19 04:23:36;;;;;;;7.95;4.63;;;;;11.50;101080.00;;;;5089090;28;20194;-78
2020/12/19 04:26:03;;;;;;;7.30;4.63;;;;;11.50;101081.00;;;;5088991;28;20206;-77
2020/12/19 04:28:30;;;;;;;10.10;5.47;;;;;11.50;101083.00;;;;5106609;28;20602;-78
2020/12/19 04:30:57;;;;;;;8.57;5.68;;;;;11.50;101079.00;;;;5107184;28;20659;-77
2020/12/19 04:33:24;;;;;;;7.45;4.68;;;;;11.50;101073.00;;;;5093498;28;20607;-77
2020/12/19 04:35:51;;;;;;;8.07;4.88;;;;;11.50;101070.00;;;;5108639;28;20217;-77
2020/12/19 04:38:18;;;;;;;7.55;5.10;;;;;11.50;101071.00;;;;5091843;28;20198;-77
2020/12/19 04:40:46;;;;;;;8.88;5.75;;;;;11.50;101060.00;;;;5088745;28;20194;-78
2020/12/19 04:43:15;;;;;;;8.55;4.97;;;;;11.50;101067.00;;;;5089572;28;20209;-77
2020/12/19 04:45:42;;;;;;;7.10;5.30;;;;;11.50;101059.00;;;;5088134;28;20241;-78
2020/12/19 04:48:09;;;;;;;7.55;4.53;;;;;11.50;101053.00;;;;5089862;28;20195;-77
2020/12/19 04:50:40;;;;;;;7.57;5.18;;;;;11.50;101056.00;;;;5087676;28;20206;-78
2020/12/19 04:53:14;;;;;;;8.80;5.28;;;;;11.40;101054.00;;;;5094844;28;20204;-77
2020/12/19 04:55:41;;;;;;;10.02;5.38;;;;;11.50;101056.00;;;;5104047;28;20202;-77
2020/12/19 04:58:12;;;;;;;7.38;4.80;;;;;11.40;101040.00;;;;5102804;28;20284;-77
2020/12/19 05:00:39;;;;;;;6.85;4.72;;;;;11.50;101046.00;;;;5088909;28;20221;-77
2020/12/19 05:03:06;;;;;;;8.27;5.45;;;;;11.40;101051.00;;;;5100997;28;20243;-76
2020/12/19 05:05:34;;;;;;;8.00;5.00;;;;;11.40;101046.00;;;;5101142;28;20194;-77
2020/12/19 05:08:00;;;;;;;7.53;4.90;;;;;11.40;101046.00;;;;5101779;28;20209;-77
2020/12/19 05:10:27;;;;;;;8.10;5.30;;;;;11.40;101048.00;;;;5106936;28;20212;-77
2020/12/19 05:12:55;;;;;;;6.97;4.28;;;;;11.40;101041.00;;;;5094374;28;20186;-77
2020/12/19 05:15:23;;;;;;;6.53;4.32;;;;;11.40;101040.00;;;;5087802;28;20206;-77
2020/12/19 05:17:53;;;;;;;7.13;4.80;;;;;11.30;101044.00;;;;5088929;28;20224;-77
2020/12/19 05:20:21;;;;;;;7.93;5.32;;;;;11.30;101039.00;;;;5087604;28;20210;-77
2020/12/19 05:22:49;;;;;;;7.13;4.68;;;;;11.30;101038.00;;;;5095745;28;20205;-78
2020/12/19 05:25:17;;;;;;;7.40;4.75;;;;;11.30;101040.00;;;;5088526;28;20680;-77
2020/12/19 05:27:44;;;;;;;8.40;5.30;;;;;11.30;101040.00;;;;5091740;28;20206;-77
2020/12/19 05:30:11;;;;;;;8.40;5.32;;;;;11.30;101035.00;;;;5111299;28;20197;-77
2020/12/19 05:32:47;;;;;;;8.80;5.25;;;;;11.20;101036.00;;;;5094345;28;20206;-76
2020/12/19 05:35:14;;;;;;;10.18;5.30;;;;;11.30;101034.00;;;;5093849;28;20192;-76
2020/12/19 05:37:41;;;;;;;5.80;4.40;;;;;11.30;101032.00;;;;5099495;28;20229;-76
2020/12/19 05:40:09;;;;;;;5.65;3.97;;;;;11.20;101022.00;;;;5090753;28;20209;-76
2020/12/19 05:42:38;;;;;;;8.05;5.05;;;;;11.20;101027.00;;;;5093964;28;20663;-76
2020/12/19 05:45:13;;;;;;;7.03;4.28;;;;;11.20;101017.00;;;;5110781;28;20222;-76
2020/12/19 05:47:41;;;;;;;8.40;5.38;;;;;11.20;101021.00;;;;5098584;28;20198;-76
2020/12/19 05:50:09;;;;;;;5.95;4.22;;;;;11.20;101020.00;;;;5089831;28;20206;-76
2020/12/19 05:52:37;;;;;;;7.65;4.88;;;;;11.20;101020.00;;;;5098866;28;20725;-76
2020/12/19 05:55:09;;;;;;;7.80;4.70;;;;;11.20;101021.00;;;;5091007;28;20194;-76
2020/12/19 05:57:37;;;;;;;7.03;4.50;;;;;11.10;101023.00;;;;5097301;28;20229;-77
2020/12/19 06:00:07;;;;;;;8.98;5.30;;;;;11.10;101016.00;;;;5091646;28;20222;-76
2020/12/19 06:02:36;;;;;;;7.47;4.60;;;;;11.10;101013.00;;;;5099999;28;20240;-78
2020/12/19 06:05:06;;;;;;;8.55;5.43;;;;;11.10;101022.00;;;;5090816;28;20220;-77
2020/12/19 06:07:36;;;;;;;8.65;5.22;;;;;11.10;101007.00;;;;5097729;28;20202;-77
2020/12/19 06:10:06;;;;;;;6.97;4.25;;;;;11.10;101005.00;;;;5104056;28;20221;-77
2020/12/19 06:12:52;;;;;;;8.70;4.95;;;;;11.00;101012.00;;;;5104862;28;20243;-78
2020/12/19 06:15:46;;;;;;;8.00;5.05;;;;;11.00;101009.00;;;;5108315;27;20197;-78
2020/12/19 06:18:22;;;;;;;7.00;4.13;;;;;11.10;101010.00;;;;5098164;28;20202;-78
2020/12/19 06:20:50;;;;;;;8.57;5.57;;;;;11.10;101017.00;;;;5090053;28;21054;-78
2020/12/19 06:23:17;;;;;;;8.98;5.32;;;;;11.10;101007.00;;;;5102007;28;20194;-76
2020/12/19 06:25:45;;;;;;;7.70;4.90;;;;;11.10;101005.00;;;;5095643;28;20201;-77
2020/12/19 06:28:33;;;;;;;7.03;4.85;;;;;11.10;101006.00;;;;5107276;28;20205;-78
2020/12/19 06:31:05;;;;;;;7.60;4.25;;;;;11.00;100999.00;;;;5100342;28;20205;-78
2020/12/19 06:33:34;;;;;;;7.03;4.45;;;;;11.10;101000.00;;;;5090140;28;20261;-77
2020/12/19 06:36:04;;;;;;;7.43;4.97;;;;;11.10;101004.00;;;;5110032;28;20724;-77
2020/12/19 06:38:39;;;;;;;6.05;4.47;;;;;11.00;101007.00;;;;5105388;28;20559;-77
2020/12/19 06:41:06;;;;;;;8.73;4.63;;;;;11.10;101002.00;;;;5082462;28;20206;-77
2020/12/19 06:43:32;;;;;;;8.23;5.22;;;;;11.10;101012.00;;;;5090825;28;20676;-77
2020/12/19 06:45:59;;;;;;;8.95;4.88;;;;;11.10;101000.00;;;;5092674;28;20197;-77
2020/12/19 06:48:33;;;;;;;7.05;4.70;;;;;11.00;101000.00;;;;5098952;28;20198;-77
2020/12/19 06:51:02;;;;;;;6.88;4.68;;;;;11.10;101003.00;;;;5093533;28;20197;-77
2020/12/19 06:53:30;;;;;;;8.68;5.18;;;;;11.10;100996.00;;;;5089466;28;20228;-77
2020/12/19 06:55:57;;;;;;;6.93;4.72;;;;;11.10;101008.00;;;;5101056;28;20194;-78
2020/12/19 06:58:28;;;;;;;8.35;5.50;;;;;11.10;100996.00;;;;5089515;28;20206;-77
2020/12/19 07:00:55;;;;;;;6.82;4.15;;;;;11.10;101000.00;;;;5103640;28;20296;-77
2020/12/19 07:03:39;;;;;;;7.57;4.57;;;;;11.00;101005.00;;;;5097929;28;20198;-77
2020/12/19 07:06:14;;;;;;;9.73;4.90;;;;;11.10;101000.00;;;;5091877;28;20190;-77
2020/12/19 07:08:42;;;;;;;6.32;4.43;;;;;11.10;101007.00;;;;5085644;28;20202;-77
2020/12/19 07:11:14;;;;;;;8.35;5.03;;;;;11.10;101004.00;;;;5086794;28;20198;-77
2020/12/19 07:13:54;;;;;;;7.20;4.32;;;;;11.00;101001.00;;;;5081412;28;20194;-77
2020/12/19 07:16:44;;;;;;;7.90;5.38;;;;;11.10;100999.00;;;;5089639;28;20213;-77
2020/12/19 07:19:24;;;;;;;7.03;4.35;;;;;11.10;100997.00;;;;5084587;28;20611;-77
2020/12/19 07:21:53;;;;;;;7.68;4.60;;;;;11.20;101002.00;;;;5095373;28;20236;-78
2020/12/19 07:24:20;;;;;;;8.07;4.88;;;;;11.20;101003.00;;;;5101134;28;20691;-77
2020/12/19 07:26:47;;;;;;;6.18;4.30;;;;;11.30;101002.00;;;;5099349;28;20250;-78
2020/12/19 07:29:19;;;;;;;7.50;4.78;;;;;11.30;101002.00;;;;5086854;28;20686;-77
2020/12/19 07:31:49;;;;;;;6.22;4.28;;;;;11.30;100998.00;;;;5087461;28;20202;-77
2020/12/19 07:34:16;;;;;;;8.15;4.68;;;;;11.40;100997.00;;;;5087339;28;20675;-80
2020/12/19 07:36:45;;;;;;;6.10;4.35;;;;;11.40;100996.00;;;;5081749;28;20275;-77
2020/12/19 07:39:13;;;;;;;6.07;4.13;;;;;11.40;100997.00;;;;5077794;28;20300;-78
2020/12/19 07:41:42;;;;;;;6.75;4.32;;;;;11.40;100999.00;;;;5088955;28;20190;-78
2020/12/19 07:44:11;;;;;;;8.48;4.82;;;;;11.40;100991.00;;;;5082216;28;20199;-78
2020/12/19 07:46:49;;;;;;;5.75;4.05;;;;;11.40;100990.00;;;;5079805;28;20199;-77
2020/12/19 07:49:31;;;;;;;6.50;4.38;;;;;11.40;100981.00;;;;5079792;28;20212;-79
2020/12/19 07:52:14;;;;;;;6.47;4.35;;;;;11.40;100987.00;;;;5087926;28;20202;-79
2020/12/19 07:54:51;;;;;;;6.43;4.57;;;;;11.50;100982.00;;;;5073989;28;20194;-79
2020/12/19 07:57:18;;;;;;;7.07;4.00;;;;;11.50;100985.00;;;;5089009;28;20260;-78
2020/12/19 07:59:45;;;;;;;6.60;4.43;;;;;11.50;100981.00;;;;5076114;28;20226;-79
2020/12/19 08:02:14;;;;;;;7.38;4.55;;;;;11.50;100985.00;;;;5079097;28;20264;-79
2020/12/19 08:04:47;;;;;;;6.05;4.10;;;;;11.60;100981.00;;;;5068732;28;20210;-79
2020/12/19 08:07:14;;;;;;;5.80;4.22;;;;;11.60;100985.00;;;;5086561;28;20200;-79
2020/12/19 08:09:41;;;;;;;5.95;4.10;;;;;11.50;100980.00;;;;5090071;28;20660;-79
2020/12/19 08:12:10;;;;;;;7.65;4.70;;;;;11.50;100968.00;;;;5106638;28;20205;-79
2020/12/19 08:14:38;;;;;;;8.77;4.50;;;;;11.60;100967.00;;;;5085787;28;20202;-79
2020/12/19 08:17:13;;;;;;;5.90;3.78;;;;;11.60;100973.00;;;;5077486;28;20223;-79
2020/12/19 08:19:42;;;;;;;5.88;4.22;;;;;11.60;100970.00;;;;5067766;28;20255;-79
2020/12/19 08:22:11;;;;;;;6.20;4.80;;;;;11.60;100967.00;;;;5088241;28;20190;-79
2020/12/19 08:24:38;;;;;;;5.85;3.67;;;;;11.60;100973.00;;;;5089417;28;20206;-80
2020/12/19 08:27:36;;;;;;;7.78;4.53;;;;;11.50;100979.00;;;;5094526;28;20205;-80
2020/12/19 08:30:08;;;;;;;8.10;4.18;;;;;11.60;100987.00;;;;5107991;28;20206;-79
2020/12/19 08:32:36;;;;;;;6.93;4.55;;;;;11.70;100985.00;;;;5108775;28;20204;-79
2020/12/19 08:35:03;;;;;;;6.15;3.92;;;;;11.70;100988.00;;;;5093118;28;20194;-77
2020/12/19 08:37:31;;;;;;;7.25;4.47;;;;;11.70;100985.00;;;;5095558;28;20702;-78
2020/12/19 08:40:19;;;;;;;6.45;4.57;;;;;11.60;100985.00;;;;5105019;28;20560;-78
2020/12/19 08:42:49;;;;;;;7.07;4.72;;;;;11.80;100982.00;;;;5087118;28;20190;-78
2020/12/19 08:45:24;;;;;;;7.53;4.03;;;;;11.80;100985.00;;;;5088845;28;20202;-77
2020/12/19 08:47:53;;;;;;;6.47;4.22;;;;;11.80;100976.00;;;;5097739;28;20193;-78
2020/12/19 08:50:25;;;;;;;6.25;4.43;;;;;11.90;100971.00;;;;5107918;28;20205;-77
2020/12/19 08:53:03;;;;;;;5.15;3.58;;;;;11.90;100983.00;;;;5098214;28;20201;-78
2020/12/19 08:55:30;;;;;;;6.13;4.32;;;;;12.00;100983.00;;;;5086439;28;20201;-78
2020/12/19 08:57:57;;;;;;;7.03;4.68;;;;;12.10;100988.00;;;;5087614;28;20630;-78
2020/12/19 09:00:24;;;;;;;7.57;4.47;;;;;12.10;100977.00;;;;5103764;28;20976;-78
2020/12/19 09:02:51;;;;;;;7.38;4.60;;;;;12.20;100968.00;;;;5103888;28;20186;-78
2020/12/19 09:05:32;;;;;;;6.45;4.03;;;;;12.20;100983.00;;;;5091421;28;20255;-78
2020/12/19 09:07:59;;;;;;;7.20;4.15;;;;;12.30;100982.00;;;;5101208;28;20666;-78
2020/12/19 09:10:27;;;;;;;7.60;4.60;;;;;12.40;100993.00;;;;5075808;28;20202;-80
2020/12/19 09:13:13;;;;;;;7.80;4.55;;;;;12.40;100985.00;;;;5083437;28;20197;-76
2020/12/19 09:15:41;;;;;;;6.57;4.40;;;;;12.60;100979.00;;;;5088604;28;20210;-76
2020/12/19 09:18:19;;;;;;;5.25;3.63;;;;;12.60;100981.00;;;;5093835;28;20711;-75
2020/12/19 09:20:50;;;;;;;7.18;3.83;;;;;12.70;100982.00;;;;5104624;28;20247;-76
2020/12/19 09:23:17;;;;;;;7.18;4.90;;;;;12.80;100975.00;;;;5092446;28;20332;-75
2020/12/19 09:25:44;;;;;;;6.43;4.88;;;;;12.90;100974.00;;;;5091246;28;20199;-76
2020/12/19 09:28:12;;;;;;;6.78;4.68;;;;;13.00;100978.00;;;;5091436;28;20753;-75
2020/12/19 09:30:39;;;;;;;6.03;4.20;;;;;13.10;100975.00;;;;5103232;28;20198;-78
2020/12/19 09:33:06;;;;;;;7.25;4.35;;;;;13.20;100976.00;;;;5091130;28;20198;-78
2020/12/19 09:35:33;;;;;;;6.80;4.88;;;;;13.30;100971.00;;;;5090507;28;20594;-78
2020/12/19 09:37:59;;;;;;;7.45;4.75;;;;;13.50;100965.00;;;;5108457;28;20225;-77
2020/12/19 09:40:27;;;;;;;7.82;5.07;;;;;13.60;100964.00;;;;5090529;28;20251;-79
2020/12/19 09:42:53;;;;;;;12.77;4.82;;;;;13.70;100979.00;;;;5107898;28;20190;-79
2020/12/19 09:45:21;;;;;;;6.43;4.43;;;;;13.70;100978.00;;;;5113685;28;20194;-79
2020/12/19 09:47:51;;;;;;;6.15;4.57;;;;;13.80;100972.00;;;;5095045;28;20202;-79
2020/12/19 09:50:17;;;;;;;6.47;4.43;;;;;13.90;100970.00;;;;5101926;28;20193;-78
2020/12/19 09:52:44;;;;;;;5.28;4.38;;;;;14.00;100963.00;;;;5105562;28;20190;-80
2020/12/19 09:55:11;;;;;;;6.03;4.57;;;;;14.00;100963.00;;;;5094992;28;20552;-79
2020/12/19 09:57:38;;;;;;;4.82;3.92;;;;;14.10;100953.00;;;;5104138;28;20228;-78
2020/12/19 10:00:06;;;;;;;6.28;4.07;;;;;14.20;100961.00;;;;5100558;28;20238;-80
2020/12/19 10:02:33;;;;;;;5.82;4.00;;;;;14.30;100962.00;;;;5092137;28;20222;-79
2020/12/19 10:05:00;;;;;;;7.07;4.63;;;;;14.40;100954.00;;;;5093121;28;20190;-79
2020/12/19 10:07:27;;;;;;;5.85;4.03;;;;;14.40;100959.00;;;;5103108;28;20563;-79
2020/12/19 10:09:54;;;;;;;6.15;4.65;;;;;14.50;100949.00;;;;5096504;28;20597;-80
2020/12/19 10:12:20;;;;;;;6.18;5.05;;;;;14.50;100940.00;;;;5097015;28;20198;-79
2020/12/19 10:14:47;;;;;;;5.65;4.35;;;;;14.60;100938.00;;;;5091079;28;20197;-78
2020/12/19 10:17:14;;;;;;;6.43;4.53;;;;;14.60;100949.00;;;;5109331;28;20652;-79
2020/12/19 10:19:42;;;;;;;7.85;4.85;;;;;14.60;100933.00;;;;5089766;28;20190;-79
2020/12/19 10:22:08;;;;;;;7.03;4.78;;;;;14.70;100942.00;;;;5089237;28;20228;-79
2020/12/19 10:24:35;;;;;;;5.90;4.10;;;;;14.80;100936.00;;;;5098424;28;20190;-78
2020/12/19 10:27:02;;;;;;;5.05;4.03;;;;;14.80;100933.00;;;;5097278;28;20201;-79
2020/12/19 10:29:29;;;;;;;6.07;4.32;;;;;14.90;100932.00;;;;5078534;28;20203;-79
2020/12/19 10:31:56;;;;;;;5.75;4.35;;;;;14.90;100939.00;;;;5069834;28;20198;-79
2020/12/19 10:34:23;;;;;;;5.30;4.07;;;;;15.00;100931.00;;;;5087172;28;20209;-79
2020/12/19 10:36:53;;;;;;;5.50;3.90;;;;;15.00;100929.00;;;;5097868;28;20274;-79
2020/12/19 10:39:20;;;;;;;6.78;4.68;;;;;15.10;100927.00;;;;5094796;28;20251;-79
2020/12/19 10:41:50;;;;;;;6.63;4.25;;;;;15.10;100918.00;;;;5088444;28;20201;-78
2020/12/19 10:44:17;;;;;;;7.00;4.72;;;;;15.20;100905.00;;;;5085261;28;20186;-79
2020/12/19 10:46:44;;;;;;;4.95;3.53;;;;;15.20;100908.00;;;;5089066;28;20202;-79
2020/12/19 10:49:11;;;;;;;5.95;4.28;;;;;15.30;100905.00;;;;5092755;28;20209;-79
2020/12/19 10:51:38;;;;;;;5.38;3.97;;;;;15.30;100899.00;;;;5088679;28;20199;-78
2020/12/19 10:54:05;;;;;;;6.00;3.83;;;;;15.40;100898.00;;;;5073052;28;20700;-79
2020/12/19 10:56:32;;;;;;;6.63;4.72;;;;;15.40;100881.00;;;;5087630;28;20206;-78
2020/12/19 10:58:59;;;;;;;5.90;4.57;;;;;15.50;100887.00;;;;5095174;28;20222;-81
2020/12/19 11:01:25;;;;;;;6.93;4.20;;;;;15.50;100887.00;;;;5097386;28;20218;-81
2020/12/19 11:03:52;;;;;;;4.70;3.95;;;;;15.50;100889.00;;;;5093005;28;20206;-82
2020/12/19 11:06:21;;;;;;;5.28;3.50;;;;;15.60;100887.00;;;;5089721;28;20202;-79
2020/12/19 11:08:48;;;;;;;5.13;4.35;;;;;15.60;100883.00;;;;5088718;28;20198;-79
2020/12/19 11:11:17;;;;;;;5.40;4.18;;;;;15.70;100881.00;;;;5089265;28;20248;-79
2020/12/19 11:13:44;;;;;;;5.72;3.95;;;;;15.70;100880.00;;;;5089800;28;20214;-79
2020/12/19 11:16:19;;;;;;;5.57;4.80;;;;;15.80;100881.00;;;;5089968;28;20202;-79
2020/12/19 11:18:46;;;;;;;5.30;4.32;;;;;15.80;100882.00;;;;5092720;28;20190;-79
2020/12/19 11:21:12;;;;;;;6.45;4.00;;;;;15.80;100887.00;;;;5089042;28;20190;-79
2020/12/19 11:23:39;;;;;;;6.07;4.57;;;;;15.90;100881.00;;;;5079148;28;20207;-80
2020/12/19 11:26:06;;;;;;;6.03;4.53;;;;;16.00;100889.00;;;;5086521;28;20202;-79
2020/12/19 11:28:34;;;;;;;5.80;4.32;;;;;16.00;100883.00;;;;5097539;28;20190;-79
2020/12/19 11:31:01;;;;;;;5.28;3.90;;;;;16.10;100879.00;;;;5097256;28;20202;-79
2020/12/19 11:33:27;;;;;;;5.47;3.95;;;;;16.10;100883.00;;;;5091168;28;20209;-80
2020/12/19 11:35:54;;;;;;;5.72;4.63;;;;;16.20;100877.00;;;;5091126;28;20194;-79
2020/12/19 11:38:21;;;;;;;4.72;3.60;;;;;16.30;100875.00;;;;5109471;28;20221;-81
2020/12/19 11:40:48;;;;;;;5.15;3.63;;;;;16.30;100890.00;;;;5107229;28;20250;-81
2020/12/19 11:43:14;;;;;;;4.60;3.15;;;;;16.40;100887.00;;;;5092824;28;20214;-79
2020/12/19 11:45:42;;;;;;;5.97;3.85;;;;;16.40;100880.00;;;;5097547;28;20695;-79
2020/12/19 11:48:09;;;;;;;4.70;3.42;;;;;16.50;100877.00;;;;5094571;28;20202;-80
2020/12/19 11:50:35;;;;;;;4.70;3.83;;;;;16.50;100878.00;;;;5089166;28;20194;-80
2020/12/19 11:53:02;;;;;;;4.93;3.70;;;;;16.50;100878.00;;;;5091700;28;20634;-79
2020/12/19 11:55:29;;;;;;;3.28;2.97;;;;;16.50;100874.00;;;;5090360;28;20668;-79
2020/12/19 11:57:56;;;;;;;4.68;3.35;;;;;16.60;100881.00;;;;5102792;28;20213;-79
2020/12/19 12:00:22;;;;;;;5.82;3.67;;;;;16.60;100878.00;;;;5107995;28;20229;-79
2020/12/19 12:02:50;;;;;;;5.07;3.83;;;;;16.60;100873.00;;;;5107566;28;20557;-79
2020/12/19 12:05:16;;;;;;;4.15;3.42;;;;;16.60;100874.00;;;;5093780;28;20217;-79
2020/12/19 12:07:43;;;;;;;2.95;2.33;;;;;16.60;100872.00;;;;5088240;28;20271;-79
2020/12/19 12:10:10;;;;;;;7.45;3.47;;;;;16.60;100873.00;;;;5088403;28;20617;-79
2020/12/19 12:12:37;;;;;;;4.35;3.17;;;;;16.60;100876.00;;;;5087970;28;20675;-79
2020/12/19 12:15:04;;;;;;;5.63;3.22;;;;;16.60;100879.00;;;;5092479;28;20292;-79